sensor_id;sensor_type;location;lat;lon;timestamp;pressure;altitude;pressure_sealevel;temperature;humidity
49455;BME280;69710;64.656;21.218;2023-05-09T00:00:52;102003.58;;;5.46;53.33
49455;BME280;69710;64.656;21.218;2023-05-09T00:03:20;102005.81;;;5.47;51.97
49455;BME280;69710;64.656;21.218;2023-05-09T00:05:48;102008.01;;;4.67;51.75
49455;BME280;69710;64.656;21.218;2023-05-09T00:08:15;102009.91;;;4.43;52.97
49455;BME280;69710;64.656;21.218;2023-05-09T00:10:43;102008.44;;;4.71;52.92
49455;BME280;69710;64.656;21.218;2023-05-09T00:13:10;102005.08;;;4.97;53.84
49455;BME280;69710;64.656;21.218;2023-05-09T00:15:38;102001.24;;;5.09;52.45
49455;BME280;69710;64.656;21.218;2023-05-09T00:18:05;102001.50;;;4.92;54.49
49455;BME280;69710;64.656;21.218;2023-05-09T00:20:32;101997.22;;;5.06;54.50
49455;BME280;69710;64.656;21.218;2023-05-09T00:23:00;101998.75;;;5.02;55.07
49455;BME280;69710;64.656;21.218;2023-05-09T00:25:27;102001.52;;;4.84;55.70
49455;BME280;69710;64.656;21.218;2023-05-09T00:27:55;102000.20;;;4.80;55.93
49455;BME280;69710;64.656;21.218;2023-05-09T00:30:23;102002.12;;;4.77;56.61
49455;BME280;69710;64.656;21.218;2023-05-09T00:32:51;102003.88;;;4.74;55.85
49455;BME280;69710;64.656;21.218;2023-05-09T00:35:18;102002.07;;;4.63;55.52
49455;BME280;69710;64.656;21.218;2023-05-09T00:37:45;102001.93;;;4.77;56.46
49455;BME280;69710;64.656;21.218;2023-05-09T00:40:13;102002.20;;;4.71;55.73
49455;BME280;69710;64.656;21.218;2023-05-09T00:42:41;102001.25;;;4.62;55.42
49455;BME280;69710;64.656;21.218;2023-05-09T00:45:10;102002.95;;;4.67;57.42
49455;BME280;69710;64.656;21.218;2023-05-09T00:47:37;101998.62;;;4.56;57.92
49455;BME280;69710;64.656;21.218;2023-05-09T00:50:06;102001.01;;;4.83;56.29
49455;BME280;69710;64.656;21.218;2023-05-09T00:52:33;102003.71;;;4.54;56.99
49455;BME280;69710;64.656;21.218;2023-05-09T00:55:01;102003.22;;;4.40;57.03
49455;BME280;69710;64.656;21.218;2023-05-09T00:57:29;101999.35;;;4.62;57.21
49455;BME280;69710;64.656;21.218;2023-05-09T00:59:56;101993.60;;;5.15;55.86
49455;BME280;69710;64.656;21.218;2023-05-09T01:02:24;101990.18;;;4.95;57.89
49455;BME280;69710;64.656;21.218;2023-05-09T01:04:51;101993.66;;;4.75;57.48
49455;BME280;69710;64.656;21.218;2023-05-09T01:07:24;101989.38;;;4.81;57.32
49455;BME280;69710;64.656;21.218;2023-05-09T01:10:01;101984.76;;;4.68;57.63
49455;BME280;69710;64.656;21.218;2023-05-09T01:12:36;101984.71;;;4.74;57.65
49455;BME280;69710;64.656;21.218;2023-05-09T01:15:12;101986.38;;;4.46;59.87
49455;BME280;69710;64.656;21.218;2023-05-09T01:17:51;101984.72;;;4.40;60.24
49455;BME280;69710;64.656;21.218;2023-05-09T01:20:27;101981.46;;;4.18;61.83
49455;BME280;69710;64.656;21.218;2023-05-09T01:23:04;101982.04;;;4.57;62.09
49455;BME280;69710;64.656;21.218;2023-05-09T01:25:47;101979.04;;;5.16;59.81
49455;BME280;69710;64.656;21.218;2023-05-09T01:28:33;101978.56;;;4.15;62.18
49455;BME280;69710;64.656;21.218;2023-05-09T01:31:03;101974.27;;;4.64;61.63
49455;BME280;69710;64.656;21.218;2023-05-09T01:33:32;101973.14;;;4.51;63.46
49455;BME280;69710;64.656;21.218;2023-05-09T01:36:06;101967.28;;;4.51;62.36
49455;BME280;69710;64.656;21.218;2023-05-09T01:38:37;101962.19;;;4.58;61.78
49455;BME280;69710;64.656;21.218;2023-05-09T01:41:05;101956.37;;;3.59;63.15
49455;BME280;69710;64.656;21.218;2023-05-09T01:43:35;101959.15;;;4.19;62.43
49455;BME280;69710;64.656;21.218;2023-05-09T01:46:04;101962.95;;;4.30;61.89
49455;BME280;69710;64.656;21.218;2023-05-09T01:48:35;101960.29;;;4.03;65.16
49455;BME280;69710;64.656;21.218;2023-05-09T01:51:04;101958.40;;;4.10;64.96
49455;BME280;69710;64.656;21.218;2023-05-09T01:53:34;101954.37;;;4.15;66.87
49455;BME280;69710;64.656;21.218;2023-05-09T01:56:03;101947.79;;;4.65;66.01
49455;BME280;69710;64.656;21.218;2023-05-09T01:58:32;101942.02;;;4.80;63.80
49455;BME280;69710;64.656;21.218;2023-05-09T02:01:01;101942.00;;;4.93;63.98
49455;BME280;69710;64.656;21.218;2023-05-09T02:03:30;101941.67;;;4.80;63.74
49455;BME280;69710;64.656;21.218;2023-05-09T02:05:58;101936.61;;;4.70;63.89
49455;BME280;69710;64.656;21.218;2023-05-09T02:08:25;101933.76;;;5.05;63.16
49455;BME280;69710;64.656;21.218;2023-05-09T02:10:54;101934.35;;;5.01;63.70
49455;BME280;69710;64.656;21.218;2023-05-09T02:13:21;101930.82;;;5.12;63.22
49455;BME280;69710;64.656;21.218;2023-05-09T02:15:48;101933.11;;;4.68;65.89
49455;BME280;69710;64.656;21.218;2023-05-09T02:18:16;101932.60;;;4.80;66.85
49455;BME280;69710;64.656;21.218;2023-05-09T02:20:43;101927.56;;;5.30;65.73
49455;BME280;69710;64.656;21.218;2023-05-09T02:23:11;101927.76;;;5.64;63.79
49455;BME280;69710;64.656;21.218;2023-05-09T02:25:40;101928.07;;;5.12;63.63
49455;BME280;69710;64.656;21.218;2023-05-09T02:28:08;101928.72;;;4.86;63.92
49455;BME280;69710;64.656;21.218;2023-05-09T02:30:41;101925.44;;;4.63;65.16
49455;BME280;69710;64.656;21.218;2023-05-09T02:33:10;101926.74;;;4.10;68.56
49455;BME280;69710;64.656;21.218;2023-05-09T02:35:42;101921.31;;;4.73;66.67
49455;BME280;69710;64.656;21.218;2023-05-09T02:38:11;101917.73;;;4.18;70.45
49455;BME280;69710;64.656;21.218;2023-05-09T02:40:41;101913.83;;;4.13;69.77
49455;BME280;69710;64.656;21.218;2023-05-09T02:43:09;101915.95;;;3.95;70.25
49455;BME280;69710;64.656;21.218;2023-05-09T02:45:36;101915.66;;;4.13;70.37
49455;BME280;69710;64.656;21.218;2023-05-09T02:48:05;101913.59;;;4.23;68.78
49455;BME280;69710;64.656;21.218;2023-05-09T02:50:33;101909.67;;;4.13;70.13
49455;BME280;69710;64.656;21.218;2023-05-09T02:53:00;101912.89;;;4.51;69.79
49455;BME280;69710;64.656;21.218;2023-05-09T02:55:28;101912.03;;;3.94;71.35
49455;BME280;69710;64.656;21.218;2023-05-09T02:57:55;101913.19;;;3.51;72.25
49455;BME280;69710;64.656;21.218;2023-05-09T03:00:23;101910.34;;;3.84;71.67
49455;BME280;69710;64.656;21.218;2023-05-09T03:02:51;101904.55;;;4.53;69.30
49455;BME280;69710;64.656;21.218;2023-05-09T03:05:18;101906.64;;;4.91;68.30
49455;BME280;69710;64.656;21.218;2023-05-09T03:07:45;101906.36;;;4.71;69.25
49455;BME280;69710;64.656;21.218;2023-05-09T03:10:13;101908.54;;;4.06;71.38
49455;BME280;69710;64.656;21.218;2023-05-09T03:12:40;101910.71;;;3.82;72.51
49455;BME280;69710;64.656;21.218;2023-05-09T03:15:08;101908.31;;;4.08;73.10
49455;BME280;69710;64.656;21.218;2023-05-09T03:17:36;101907.66;;;3.71;74.09
49455;BME280;69710;64.656;21.218;2023-05-09T03:20:05;101905.55;;;3.82;73.96
49455;BME280;69710;64.656;21.218;2023-05-09T03:22:33;101903.62;;;3.89;74.53
49455;BME280;69710;64.656;21.218;2023-05-09T03:25:00;101909.66;;;3.48;75.73
49455;BME280;69710;64.656;21.218;2023-05-09T03:27:28;101902.05;;;3.64;75.00
49455;BME280;69710;64.656;21.218;2023-05-09T03:29:55;101903.58;;;3.84;76.95
49455;BME280;69710;64.656;21.218;2023-05-09T03:32:23;101897.03;;;5.01;73.29
49455;BME280;69710;64.656;21.218;2023-05-09T03:34:50;101892.23;;;5.30;71.72
49455;BME280;69710;64.656;21.218;2023-05-09T03:37:18;101886.91;;;5.53;70.52
49455;BME280;69710;64.656;21.218;2023-05-09T03:39:45;101885.12;;;5.30;70.50
49455;BME280;69710;64.656;21.218;2023-05-09T03:42:13;101884.65;;;6.20;67.41
49455;BME280;69710;64.656;21.218;2023-05-09T03:44:40;101884.65;;;6.79;65.59
49455;BME280;69710;64.656;21.218;2023-05-09T03:47:07;101883.52;;;7.26;64.42
49455;BME280;69710;64.656;21.218;2023-05-09T03:49:35;101881.65;;;6.82;64.40
49455;BME280;69710;64.656;21.218;2023-05-09T03:52:03;101880.58;;;8.12;61.36
49455;BME280;69710;64.656;21.218;2023-05-09T03:54:30;101875.90;;;7.71;60.98
49455;BME280;69710;64.656;21.218;2023-05-09T03:56:58;101873.78;;;8.32;58.67
49455;BME280;69710;64.656;21.218;2023-05-09T03:59:25;101869.20;;;10.02;55.95
49455;BME280;69710;64.656;21.218;2023-05-09T04:01:52;101876.34;;;8.21;59.05
49455;BME280;69710;64.656;21.218;2023-05-09T04:04:20;101889.74;;;7.79;59.04
49455;BME280;69710;64.656;21.218;2023-05-09T04:06:48;101890.62;;;8.28;58.94
49455;BME280;69710;64.656;21.218;2023-05-09T04:09:15;101888.35;;;7.44;59.15
49455;BME280;69710;64.656;21.218;2023-05-09T04:11:42;101889.43;;;7.27;61.19
49455;BME280;69710;64.656;21.218;2023-05-09T04:14:10;101891.42;;;6.06;61.93
49455;BME280;69710;64.656;21.218;2023-05-09T04:16:37;101889.45;;;6.51;65.45
49455;BME280;69710;64.656;21.218;2023-05-09T04:19:04;101884.64;;;5.15;66.40
49455;BME280;69710;64.656;21.218;2023-05-09T04:21:32;101883.67;;;6.43;63.44
49455;BME280;69710;64.656;21.218;2023-05-09T04:23:59;101878.81;;;5.94;64.84
49455;BME280;69710;64.656;21.218;2023-05-09T04:26:27;101882.08;;;6.71;63.68
49455;BME280;69710;64.656;21.218;2023-05-09T04:28:54;101877.17;;;6.43;61.83
49455;BME280;69710;64.656;21.218;2023-05-09T04:31:21;101876.64;;;7.79;62.06
49455;BME280;69710;64.656;21.218;2023-05-09T04:33:49;101879.47;;;6.22;63.28
49455;BME280;69710;64.656;21.218;2023-05-09T04:36:16;101880.20;;;5.56;63.97
49455;BME280;69710;64.656;21.218;2023-05-09T04:38:43;101880.29;;;5.31;65.24
49455;BME280;69710;64.656;21.218;2023-05-09T04:41:11;101880.99;;;5.06;69.14
49455;BME280;69710;64.656;21.218;2023-05-09T04:43:38;101874.62;;;6.17;69.21
49455;BME280;69710;64.656;21.218;2023-05-09T04:46:06;101875.53;;;6.27;68.09
49455;BME280;69710;64.656;21.218;2023-05-09T04:48:34;101870.56;;;6.33;66.47
49455;BME280;69710;64.656;21.218;2023-05-09T04:51:01;101869.08;;;8.03;63.89
49455;BME280;69710;64.656;21.218;2023-05-09T04:53:29;101873.09;;;8.28;62.55
49455;BME280;69710;64.656;21.218;2023-05-09T04:55:56;101867.81;;;7.87;59.91
49455;BME280;69710;64.656;21.218;2023-05-09T04:58:23;101865.31;;;7.16;60.35
49455;BME280;69710;64.656;21.218;2023-05-09T05:00:51;101855.97;;;7.47;60.76
49455;BME280;69710;64.656;21.218;2023-05-09T05:03:18;101853.44;;;8.54;58.28
49455;BME280;69710;64.656;21.218;2023-05-09T05:05:46;101850.16;;;8.25;57.92
49455;BME280;69710;64.656;21.218;2023-05-09T05:08:16;101852.75;;;8.39;60.24
49455;BME280;69710;64.656;21.218;2023-05-09T05:10:44;101843.29;;;9.45;56.92
49455;BME280;69710;64.656;21.218;2023-05-09T05:13:12;101841.01;;;9.87;54.71
49455;BME280;69710;64.656;21.218;2023-05-09T05:15:40;101841.13;;;8.96;54.62
49455;BME280;69710;64.656;21.218;2023-05-09T05:18:09;101838.89;;;8.72;54.11
49455;BME280;69710;64.656;21.218;2023-05-09T05:20:36;101840.73;;;11.77;51.61
49455;BME280;69710;64.656;21.218;2023-05-09T05:23:06;101846.03;;;10.17;52.34
49455;BME280;69710;64.656;21.218;2023-05-09T05:25:35;101844.75;;;10.65;51.06
49455;BME280;69710;64.656;21.218;2023-05-09T05:28:04;101850.64;;;10.06;50.92
49455;BME280;69710;64.656;21.218;2023-05-09T05:30:32;101852.99;;;10.07;52.84
49455;BME280;69710;64.656;21.218;2023-05-09T05:33:00;101856.07;;;9.04;57.07
49455;BME280;69710;64.656;21.218;2023-05-09T05:35:27;101861.80;;;7.27;62.36
49455;BME280;69710;64.656;21.218;2023-05-09T05:37:54;101860.46;;;8.86;61.40
49455;BME280;69710;64.656;21.218;2023-05-09T05:40:22;101862.60;;;8.31;61.77
49455;BME280;69710;64.656;21.218;2023-05-09T05:42:49;101862.56;;;7.93;63.93
49455;BME280;69710;64.656;21.218;2023-05-09T05:45:17;101861.02;;;5.78;71.47
49455;BME280;69710;64.656;21.218;2023-05-09T05:47:44;101853.98;;;6.64;70.23
49455;BME280;69710;64.656;21.218;2023-05-09T05:50:12;101852.84;;;7.65;67.43
49455;BME280;69710;64.656;21.218;2023-05-09T05:52:40;101853.90;;;5.83;73.61
49455;BME280;69710;64.656;21.218;2023-05-09T05:55:08;101853.55;;;5.10;78.71
49455;BME280;69710;64.656;21.218;2023-05-09T05:57:36;101850.76;;;5.81;75.91
49455;BME280;69710;64.656;21.218;2023-05-09T06:00:04;101847.70;;;5.01;83.46
49455;BME280;69710;64.656;21.218;2023-05-09T06:02:32;101844.92;;;6.33;79.73
49455;BME280;69710;64.656;21.218;2023-05-09T06:04:59;101841.50;;;6.88;75.13
49455;BME280;69710;64.656;21.218;2023-05-09T06:07:26;101842.23;;;6.76;74.94
49455;BME280;69710;64.656;21.218;2023-05-09T06:09:54;101839.45;;;7.28;72.34
49455;BME280;69710;64.656;21.218;2023-05-09T06:12:21;101832.40;;;7.97;69.57
49455;BME280;69710;64.656;21.218;2023-05-09T06:14:49;101830.06;;;8.18;69.36
49455;BME280;69710;64.656;21.218;2023-05-09T06:17:17;101829.93;;;7.15;72.18
49455;BME280;69710;64.656;21.218;2023-05-09T06:19:45;101830.19;;;6.30;75.56
49455;BME280;69710;64.656;21.218;2023-05-09T06:22:12;101830.11;;;7.57;73.26
49455;BME280;69710;64.656;21.218;2023-05-09T06:24:40;101824.35;;;6.37;78.04
49455;BME280;69710;64.656;21.218;2023-05-09T06:27:08;101823.92;;;6.50;79.81
49455;BME280;69710;64.656;21.218;2023-05-09T06:29:35;101818.95;;;5.95;82.23
49455;BME280;69710;64.656;21.218;2023-05-09T06:32:02;101816.91;;;6.37;80.58
49455;BME280;69710;64.656;21.218;2023-05-09T06:34:30;101814.84;;;6.86;78.81
49455;BME280;69710;64.656;21.218;2023-05-09T06:36:57;101814.25;;;7.61;77.54
49455;BME280;69710;64.656;21.218;2023-05-09T06:39:25;101810.77;;;5.67;84.19
49455;BME280;69710;64.656;21.218;2023-05-09T06:41:52;101809.73;;;6.87;81.26
49455;BME280;69710;64.656;21.218;2023-05-09T06:44:20;101810.75;;;6.19;83.71
49455;BME280;69710;64.656;21.218;2023-05-09T06:46:47;101807.25;;;5.89;85.89
49455;BME280;69710;64.656;21.218;2023-05-09T06:49:15;101800.97;;;6.26;84.54
49455;BME280;69710;64.656;21.218;2023-05-09T06:51:42;101797.71;;;4.98;91.66
49455;BME280;69710;64.656;21.218;2023-05-09T06:54:11;101793.26;;;5.94;88.81
49455;BME280;69710;64.656;21.218;2023-05-09T06:56:38;101783.39;;;6.76;84.18
49455;BME280;69710;64.656;21.218;2023-05-09T06:59:06;101783.32;;;7.66;80.40
49455;BME280;69710;64.656;21.218;2023-05-09T07:01:33;101783.00;;;7.98;77.91
49455;BME280;69710;64.656;21.218;2023-05-09T07:04:01;101777.19;;;8.36;76.11
49455;BME280;69710;64.656;21.218;2023-05-09T07:06:28;101780.30;;;7.69;78.52
49455;BME280;69710;64.656;21.218;2023-05-09T07:08:56;101782.12;;;7.39;79.58
49455;BME280;69710;64.656;21.218;2023-05-09T07:11:23;101774.82;;;7.93;78.23
49455;BME280;69710;64.656;21.218;2023-05-09T07:13:50;101770.04;;;8.31;77.45
49455;BME280;69710;64.656;21.218;2023-05-09T07:16:18;101767.78;;;8.61;73.85
49455;BME280;69710;64.656;21.218;2023-05-09T07:18:45;101768.57;;;8.48;74.11
49455;BME280;69710;64.656;21.218;2023-05-09T07:21:13;101764.72;;;8.73;72.17
49455;BME280;69710;64.656;21.218;2023-05-09T07:23:40;101762.47;;;9.15;71.59
49455;BME280;69710;64.656;21.218;2023-05-09T07:26:07;101758.44;;;9.40;70.14
49455;BME280;69710;64.656;21.218;2023-05-09T07:28:35;101754.77;;;9.34;68.52
49455;BME280;69710;64.656;21.218;2023-05-09T07:31:02;101756.13;;;9.54;68.53
49455;BME280;69710;64.656;21.218;2023-05-09T07:33:30;101752.90;;;9.41;68.44
49455;BME280;69710;64.656;21.218;2023-05-09T07:35:57;101758.32;;;8.89;72.22
49455;BME280;69710;64.656;21.218;2023-05-09T07:38:25;101751.14;;;8.37;73.60
49455;BME280;69710;64.656;21.218;2023-05-09T07:40:53;101748.75;;;8.82;73.07
49455;BME280;69710;64.656;21.218;2023-05-09T07:43:20;101752.08;;;8.76;73.51
49455;BME280;69710;64.656;21.218;2023-05-09T07:45:47;101746.76;;;7.95;75.41
49455;BME280;69710;64.656;21.218;2023-05-09T07:48:15;101738.31;;;8.13;76.65
49455;BME280;69710;64.656;21.218;2023-05-09T07:50:42;101740.18;;;8.01;77.73
49455;BME280;69710;64.656;21.218;2023-05-09T07:53:10;101734.89;;;8.50;76.11
49455;BME280;69710;64.656;21.218;2023-05-09T07:55:37;101729.21;;;8.39;76.41
49455;BME280;69710;64.656;21.218;2023-05-09T07:58:04;101730.68;;;8.46;75.29
49455;BME280;69710;64.656;21.218;2023-05-09T08:00:32;101721.90;;;9.13;72.86
49455;BME280;69710;64.656;21.218;2023-05-09T08:02:59;101718.86;;;9.23;71.69
49455;BME280;69710;64.656;21.218;2023-05-09T08:05:27;101717.55;;;9.69;71.78
49455;BME280;69710;64.656;21.218;2023-05-09T08:07:54;101712.69;;;10.02;69.51
49455;BME280;69710;64.656;21.218;2023-05-09T08:10:21;101714.57;;;10.86;68.67
49455;BME280;69710;64.656;21.218;2023-05-09T08:12:49;101710.05;;;11.06;67.26
49455;BME280;69710;64.656;21.218;2023-05-09T08:15:16;101706.50;;;11.45;65.71
49455;BME280;69710;64.656;21.218;2023-05-09T08:17:44;101695.57;;;11.75;64.22
49455;BME280;69710;64.656;21.218;2023-05-09T08:20:12;101696.02;;;11.65;63.02
49455;BME280;69710;64.656;21.218;2023-05-09T08:22:39;101693.94;;;12.22;62.58
49455;BME280;69710;64.656;21.218;2023-05-09T08:25:07;101697.92;;;12.25;61.71
49455;BME280;69710;64.656;21.218;2023-05-09T08:27:35;101697.14;;;12.31;61.27
49455;BME280;69710;64.656;21.218;2023-05-09T08:30:03;101695.48;;;12.37;61.34
49455;BME280;69710;64.656;21.218;2023-05-09T08:32:31;101686.57;;;12.69;60.29
49455;BME280;69710;64.656;21.218;2023-05-09T08:34:58;101687.51;;;12.11;61.32
49455;BME280;69710;64.656;21.218;2023-05-09T08:37:26;101690.67;;;12.04;61.54
49455;BME280;69710;64.656;21.218;2023-05-09T08:39:53;101686.92;;;12.30;60.20
49455;BME280;69710;64.656;21.218;2023-05-09T08:42:21;101687.18;;;12.21;60.51
49455;BME280;69710;64.656;21.218;2023-05-09T08:44:49;101685.77;;;12.96;59.07
49455;BME280;69710;64.656;21.218;2023-05-09T08:47:17;101683.70;;;12.98;57.38
49455;BME280;69710;64.656;21.218;2023-05-09T08:49:45;101683.92;;;13.68;56.10
49455;BME280;69710;64.656;21.218;2023-05-09T08:52:13;101683.06;;;13.86;52.31
49455;BME280;69710;64.656;21.218;2023-05-09T08:54:41;101674.88;;;14.86;49.94
49455;BME280;69710;64.656;21.218;2023-05-09T08:57:09;101672.05;;;15.27;48.90
49455;BME280;69710;64.656;21.218;2023-05-09T08:59:39;101675.50;;;13.43;51.33
49455;BME280;69710;64.656;21.218;2023-05-09T09:02:09;101669.65;;;13.73;50.83
49455;BME280;69710;64.656;21.218;2023-05-09T09:04:39;101666.75;;;13.63;50.84
49455;BME280;69710;64.656;21.218;2023-05-09T09:07:07;101663.74;;;13.38;50.64
49455;BME280;69710;64.656;21.218;2023-05-09T09:09:36;101662.72;;;13.25;51.20
49455;BME280;69710;64.656;21.218;2023-05-09T09:12:06;101664.26;;;12.44;53.75
49455;BME280;69710;64.656;21.218;2023-05-09T09:14:37;101663.31;;;12.40;54.03
49455;BME280;69710;64.656;21.218;2023-05-09T09:17:07;101659.50;;;12.67;53.89
49455;BME280;69710;64.656;21.218;2023-05-09T09:19:39;101654.67;;;12.25;53.90
49455;BME280;69710;64.656;21.218;2023-05-09T09:22:11;101654.15;;;12.82;53.82
49455;BME280;69710;64.656;21.218;2023-05-09T09:24:40;101648.69;;;12.85;51.76
49455;BME280;69710;64.656;21.218;2023-05-09T09:27:08;101648.96;;;13.20;51.58
49455;BME280;69710;64.656;21.218;2023-05-09T09:29:35;101640.71;;;13.64;50.89
49455;BME280;69710;64.656;21.218;2023-05-09T09:32:04;101643.07;;;13.70;49.05
49455;BME280;69710;64.656;21.218;2023-05-09T09:34:32;101645.04;;;14.57;47.78
49455;BME280;69710;64.656;21.218;2023-05-09T09:37:00;101640.74;;;15.00;46.68
49455;BME280;69710;64.656;21.218;2023-05-09T09:39:28;101634.28;;;15.00;45.53
49455;BME280;69710;64.656;21.218;2023-05-09T09:41:55;101638.64;;;13.80;48.96
49455;BME280;69710;64.656;21.218;2023-05-09T09:44:35;101634.09;;;13.25;51.06
49455;BME280;69710;64.656;21.218;2023-05-09T09:47:02;101631.05;;;13.28;52.12
49455;BME280;69710;64.656;21.218;2023-05-09T09:49:30;101627.83;;;13.24;51.99
49455;BME280;69710;64.656;21.218;2023-05-09T09:51:57;101627.22;;;13.76;50.47
49455;BME280;69710;64.656;21.218;2023-05-09T09:54:25;101631.10;;;14.53;48.71
49455;BME280;69710;64.656;21.218;2023-05-09T09:56:53;101627.67;;;14.29;48.10
49455;BME280;69710;64.656;21.218;2023-05-09T09:59:23;101623.58;;;14.68;48.47
49455;BME280;69710;64.656;21.218;2023-05-09T10:01:55;101622.53;;;14.75;47.78
49455;BME280;69710;64.656;21.218;2023-05-09T10:04:24;101623.00;;;15.79;48.38
49455;BME280;69710;64.656;21.218;2023-05-09T10:06:53;101620.53;;;15.28;46.82
49455;BME280;69710;64.656;21.218;2023-05-09T10:09:21;101624.61;;;15.26;47.19
49455;BME280;69710;64.656;21.218;2023-05-09T10:11:50;101622.26;;;16.14;45.97
49455;BME280;69710;64.656;21.218;2023-05-09T10:14:23;101618.22;;;16.08;45.50
49455;BME280;69710;64.656;21.218;2023-05-09T10:16:54;101614.45;;;14.87;46.40
49455;BME280;69710;64.656;21.218;2023-05-09T10:19:24;101618.29;;;15.77;45.34
49455;BME280;69710;64.656;21.218;2023-05-09T10:21:54;101614.47;;;16.03;45.10
49455;BME280;69710;64.656;21.218;2023-05-09T10:24:27;101608.33;;;16.47;44.83
49455;BME280;69710;64.656;21.218;2023-05-09T10:27:02;101606.24;;;16.33;44.50
49455;BME280;69710;64.656;21.218;2023-05-09T10:29:34;101606.41;;;16.64;45.81
49455;BME280;69710;64.656;21.218;2023-05-09T10:32:08;101606.43;;;16.55;43.60
49455;BME280;69710;64.656;21.218;2023-05-09T10:34:40;101611.80;;;16.08;44.70
49455;BME280;69710;64.656;21.218;2023-05-09T10:37:09;101608.25;;;15.81;45.62
49455;BME280;69710;64.656;21.218;2023-05-09T10:39:37;101605.99;;;15.99;44.26
49455;BME280;69710;64.656;21.218;2023-05-09T10:42:06;101600.32;;;17.26;42.02
49455;BME280;69710;64.656;21.218;2023-05-09T10:44:34;101601.23;;;17.00;42.87
49455;BME280;69710;64.656;21.218;2023-05-09T10:47:03;101603.73;;;17.31;41.59
49455;BME280;69710;64.656;21.218;2023-05-09T10:49:31;101600.51;;;17.39;41.87
49455;BME280;69710;64.656;21.218;2023-05-09T10:51:59;101595.03;;;16.64;41.29
49455;BME280;69710;64.656;21.218;2023-05-09T10:54:28;101596.45;;;17.05;41.75
49455;BME280;69710;64.656;21.218;2023-05-09T10:56:56;101590.29;;;17.24;40.91
49455;BME280;69710;64.656;21.218;2023-05-09T10:59:41;101587.58;;;17.14;42.86
49455;BME280;69710;64.656;21.218;2023-05-09T11:02:12;101580.72;;;17.07;42.96
49455;BME280;69710;64.656;21.218;2023-05-09T11:04:40;101585.87;;;17.21;41.17
49455;BME280;69710;64.656;21.218;2023-05-09T11:07:22;101578.03;;;16.27;41.31
49455;BME280;69710;64.656;21.218;2023-05-09T11:09:51;101575.90;;;16.77;41.85
49455;BME280;69710;64.656;21.218;2023-05-09T11:12:20;101575.51;;;15.96;42.18
49455;BME280;69710;64.656;21.218;2023-05-09T11:14:50;101578.28;;;15.43;43.79
49455;BME280;69710;64.656;21.218;2023-05-09T11:17:28;101576.76;;;16.06;44.61
49455;BME280;69710;64.656;21.218;2023-05-09T11:19:59;101571.57;;;15.32;43.92
49455;BME280;69710;64.656;21.218;2023-05-09T11:22:29;101573.00;;;15.57;45.33
49455;BME280;69710;64.656;21.218;2023-05-09T11:25:02;101568.88;;;16.12;44.62
49455;BME280;69710;64.656;21.218;2023-05-09T11:27:37;101561.17;;;16.02;43.76
49455;BME280;69710;64.656;21.218;2023-05-09T11:30:07;101559.26;;;16.82;41.85
49455;BME280;69710;64.656;21.218;2023-05-09T11:32:42;101563.89;;;15.81;44.96
49455;BME280;69710;64.656;21.218;2023-05-09T11:35:11;101561.94;;;16.50;43.03
49455;BME280;69710;64.656;21.218;2023-05-09T11:37:44;101564.33;;;16.19;43.73
49455;BME280;69710;64.656;21.218;2023-05-09T11:40:13;101573.86;;;15.76;43.32
49455;BME280;69710;64.656;21.218;2023-05-09T11:42:42;101572.52;;;16.36;43.38
49455;BME280;69710;64.656;21.218;2023-05-09T11:45:11;101573.03;;;16.50;44.22
49455;BME280;69710;64.656;21.218;2023-05-09T11:47:39;101568.65;;;17.18;42.95
49455;BME280;69710;64.656;21.218;2023-05-09T11:50:08;101565.58;;;17.53;42.96
49455;BME280;69710;64.656;21.218;2023-05-09T11:52:37;101556.01;;;17.03;42.55
49455;BME280;69710;64.656;21.218;2023-05-09T11:55:11;101549.20;;;17.37;43.44
49455;BME280;69710;64.656;21.218;2023-05-09T11:57:40;101541.06;;;17.03;43.11
49455;BME280;69710;64.656;21.218;2023-05-09T12:00:09;101534.32;;;16.01;44.61
49455;BME280;69710;64.656;21.218;2023-05-09T12:02:37;101538.23;;;17.15;43.86
49455;BME280;69710;64.656;21.218;2023-05-09T12:05:06;101535.00;;;16.81;42.81
49455;BME280;69710;64.656;21.218;2023-05-09T12:07:35;101543.13;;;15.26;45.19
49455;BME280;69710;64.656;21.218;2023-05-09T12:10:05;101540.82;;;15.91;45.14
49455;BME280;69710;64.656;21.218;2023-05-09T12:12:33;101541.09;;;17.09;43.42
49455;BME280;69710;64.656;21.218;2023-05-09T12:15:02;101544.97;;;17.12;43.90
49455;BME280;69710;64.656;21.218;2023-05-09T12:17:30;101537.64;;;16.30;42.98
49455;BME280;69710;64.656;21.218;2023-05-09T12:19:58;101539.38;;;17.08;42.87
49455;BME280;69710;64.656;21.218;2023-05-09T12:22:27;101547.65;;;17.07;42.80
49455;BME280;69710;64.656;21.218;2023-05-09T12:25:00;101544.63;;;16.96;42.85
49455;BME280;69710;64.656;21.218;2023-05-09T12:27:28;101540.87;;;16.66;42.83
49455;BME280;69710;64.656;21.218;2023-05-09T12:29:56;101535.31;;;17.02;42.14
49455;BME280;69710;64.656;21.218;2023-05-09T12:32:23;101537.43;;;17.54;42.10
49455;BME280;69710;64.656;21.218;2023-05-09T12:34:52;101536.80;;;17.30;42.39
49455;BME280;69710;64.656;21.218;2023-05-09T12:37:21;101535.85;;;16.90;42.25
49455;BME280;69710;64.656;21.218;2023-05-09T12:40:02;101532.42;;;17.04;42.35
49455;BME280;69710;64.656;21.218;2023-05-09T12:42:30;101532.05;;;17.36;42.18
49455;BME280;69710;64.656;21.218;2023-05-09T12:45:00;101526.14;;;17.34;41.49
49455;BME280;69710;64.656;21.218;2023-05-09T12:47:29;101527.45;;;17.06;42.46
49455;BME280;69710;64.656;21.218;2023-05-09T12:49:57;101526.79;;;17.12;41.98
49455;BME280;69710;64.656;21.218;2023-05-09T12:52:24;101527.76;;;17.55;40.51